createdAt,value
2017-11-01T00:23:04.061Z,0
2017-11-01T00:23:44.633Z,0
2017-11-01T00:24:25.259Z,0
2017-11-01T00:25:05.864Z,0
2017-11-01T00:25:46.442Z,0
2017-11-01T00:26:27.045Z,0
2017-11-01T00:27:07.602Z,0
2017-11-01T00:27:48.220Z,0
2017-11-01T00:28:28.872Z,0
2017-11-01T00:29:09.522Z,0
2017-11-01T00:29:50.170Z,0
2017-11-01T00:30:30.897Z,0
2017-11-01T00:31:11.556Z,0
2017-11-01T00:31:52.179Z,0
2017-11-01T00:32:32.836Z,0
2017-11-01T00:33:13.482Z,0
2017-11-01T00:33:54.298Z,0
2017-11-01T00:34:34.895Z,0
2017-11-01T00:35:15.456Z,0
2017-11-01T00:35:56.122Z,0
2017-11-01T00:36:36.723Z,0
2017-11-01T00:37:17.408Z,0
2017-11-01T00:37:58.200Z,0
2017-11-01T00:38:38.880Z,0
2017-11-01T00:39:19.523Z,0
2017-11-01T00:40:00.133Z,0
2017-11-01T00:40:40.752Z,0
2017-11-01T00:41:21.553Z,0
2017-11-01T00:42:02.002Z,0
2017-11-01T00:42:42.734Z,0
2017-11-01T00:43:23.315Z,0
2017-11-01T00:44:03.953Z,0
2017-11-01T00:44:44.484Z,0
2017-11-01T00:45:25.075Z,0
2017-11-01T00:46:05.777Z,0
2017-11-01T00:46:46.451Z,0
2017-11-01T00:47:27.045Z,0
2017-11-01T00:48:07.731Z,0
2017-11-01T00:48:48.297Z,0
2017-11-01T00:49:28.893Z,0
2017-11-01T00:50:09.608Z,0
2017-11-01T00:50:50.153Z,0
2017-11-01T00:51:30.820Z,0
2017-11-01T00:52:11.429Z,0
2017-11-01T00:52:51.969Z,0
2017-11-01T00:53:32.565Z,0
2017-11-01T00:54:13.138Z,0
2017-11-01T00:54:53.767Z,0
2017-11-01T00:55:34.381Z,0
2017-11-01T00:56:14.980Z,0
2017-11-01T00:56:55.587Z,0
2017-11-01T00:57:36.218Z,0
2017-11-01T00:58:16.838Z,0
2017-11-01T00:58:57.423Z,0
2017-11-01T00:59:38.051Z,0
2017-11-01T01:00:18.624Z,0
2017-11-01T01:00:59.271Z,0
2017-11-01T01:01:39.822Z,0
2017-11-01T01:02:20.430Z,0
2017-11-01T01:03:01.056Z,0
2017-11-01T01:03:41.822Z,0
2017-11-01T01:04:22.416Z,0
2017-11-01T01:05:02.988Z,0
2017-11-01T01:05:43.593Z,0
2017-11-01T01:06:24.215Z,0
2017-11-01T01:07:04.843Z,0
2017-11-01T01:07:45.410Z,0
2017-11-01T01:08:26.005Z,0
2017-11-01T01:09:06.633Z,0
2017-11-01T01:09:47.303Z,0
2017-11-01T01:10:27.864Z,0
2017-11-01T01:11:08.502Z,0
2017-11-01T01:11:49.033Z,0
2017-11-01T01:12:29.652Z,0
2017-11-01T01:13:10.292Z,0
2017-11-01T01:13:50.887Z,0
2017-11-01T01:14:31.500Z,0
2017-11-01T01:15:12.081Z,0
2017-11-01T01:15:52.689Z,0
2017-11-01T01:16:33.291Z,0
2017-11-01T01:17:13.952Z,0
2017-11-01T01:17:54.542Z,0
2017-11-01T01:18:35.166Z,0
2017-11-01T01:19:15.752Z,0
2017-11-01T01:19:56.357Z,0
2017-11-01T01:20:37.028Z,0
2017-11-01T01:21:17.630Z,0
2017-11-01T01:21:58.219Z,0
2017-11-01T01:22:38.874Z,0
2017-11-01T01:23:19.541Z,0
2017-11-01T01:24:00.104Z,0
2017-11-01T01:24:40.739Z,0
2017-11-01T01:25:21.332Z,0
2017-11-01T01:26:01.938Z,0
2017-11-01T01:26:42.592Z,0
2017-11-01T01:27:23.139Z,0
2017-11-01T01:28:03.772Z,0
2017-11-01T01:28:44.380Z,0
2017-11-01T01:29:24.993Z,0
2017-11-01T01:30:05.604Z,0
2017-11-01T01:30:46.191Z,0
2017-11-01T01:31:26.768Z,0
2017-11-01T01:32:07.378Z,0
2017-11-01T01:32:47.968Z,0
2017-11-01T01:33:28.621Z,0
2017-11-01T01:34:09.219Z,0
2017-11-01T01:34:49.824Z,0
2017-11-01T01:35:30.561Z,0
2017-11-01T01:36:11.147Z,0
2017-11-01T01:36:51.763Z,0
2017-11-01T01:37:32.387Z,0
2017-11-01T01:38:12.974Z,0
2017-11-01T01:38:53.618Z,0
2017-11-01T01:39:34.214Z,0
2017-11-01T01:40:14.813Z,0
2017-11-01T01:40:55.409Z,0
2017-11-01T01:41:35.992Z,0
2017-11-01T01:42:16.648Z,0
2017-11-01T01:42:57.243Z,0
2017-11-01T01:43:37.876Z,0
2017-11-01T01:44:18.481Z,0
2017-11-01T01:44:59.119Z,0
2017-11-01T01:45:39.695Z,0
2017-11-01T01:46:20.327Z,0
2017-11-01T01:47:00.962Z,0
2017-11-01T01:47:41.585Z,0
2017-11-01T01:48:22.224Z,0
2017-11-01T01:49:02.822Z,0
2017-11-01T01:49:43.480Z,0
2017-11-01T01:50:24.078Z,0
2017-11-01T01:51:04.673Z,0
2017-11-01T01:51:45.281Z,0
2017-11-01T01:52:25.918Z,0
2017-11-01T01:53:06.474Z,0
2017-11-01T01:53:47.084Z,0
2017-11-01T01:54:27.705Z,0
2017-11-01T01:55:08.325Z,0
2017-11-01T01:55:48.923Z,0
2017-11-01T01:56:29.500Z,0
2017-11-01T01:57:10.124Z,0
2017-11-01T01:57:50.746Z,0
2017-11-01T01:58:31.320Z,0
2017-11-01T01:59:11.929Z,0
2017-11-01T01:59:52.559Z,0
2017-11-01T02:00:33.175Z,0
2017-11-01T02:01:13.775Z,0
2017-11-01T02:01:54.357Z,0
2017-11-01T02:02:34.988Z,0
2017-11-01T02:03:15.558Z,0
2017-11-01T02:03:56.162Z,0
2017-11-01T02:04:36.776Z,0
2017-11-01T02:05:17.395Z,0
2017-11-01T02:05:58.033Z,0
2017-11-01T02:06:38.601Z,0
2017-11-01T02:07:19.257Z,0
2017-11-01T02:07:59.820Z,0
2017-11-01T02:08:40.405Z,0
2017-11-01T02:09:21.014Z,0
2017-11-01T02:10:01.651Z,0
2017-11-01T02:10:42.329Z,0
2017-11-01T02:11:22.886Z,0
2017-11-01T02:12:03.490Z,0
2017-11-01T02:12:44.079Z,0
2017-11-01T02:13:24.699Z,0
2017-11-01T02:14:05.351Z,0
2017-11-01T02:14:45.950Z,0
2017-11-01T02:15:26.574Z,0
2017-11-01T02:16:07.207Z,0
2017-11-01T02:16:47.767Z,0
2017-11-01T02:17:28.420Z,0
2017-11-01T02:18:09.047Z,0
2017-11-01T02:18:49.672Z,0
2017-11-01T02:19:30.316Z,0
2017-11-01T02:20:10.962Z,0
2017-11-01T02:20:51.621Z,0
2017-11-01T02:21:32.322Z,0
2017-11-01T02:22:12.922Z,0
2017-11-01T02:22:53.569Z,0
2017-11-01T02:23:34.226Z,0
2017-11-01T02:24:14.812Z,0
2017-11-01T02:24:55.444Z,0
2017-11-01T02:25:36.099Z,0
2017-11-01T02:26:16.708Z,0
2017-11-01T02:26:57.289Z,0
2017-11-01T02:27:37.893Z,0
2017-11-01T02:28:18.497Z,0
2017-11-01T02:28:59.229Z,0
2017-11-01T02:29:39.780Z,0
2017-11-01T02:30:20.360Z,0
2017-11-01T02:31:01.074Z,0
2017-11-01T02:31:41.573Z,0
2017-11-01T02:32:22.176Z,0
2017-11-01T02:33:02.754Z,0
2017-11-01T02:33:43.404Z,0
2017-11-01T02:34:24.026Z,0
2017-11-01T02:35:04.657Z,0
2017-11-01T02:35:45.271Z,0
2017-11-01T02:36:25.843Z,0
2017-11-01T02:37:06.437Z,0
2017-11-01T02:37:47.033Z,0
2017-11-01T02:38:27.653Z,0
2017-11-01T02:39:08.291Z,0
2017-11-01T02:39:48.845Z,0
2017-11-01T02:40:29.442Z,0
2017-11-01T02:41:10.049Z,0
2017-11-01T02:41:50.633Z,0
2017-11-01T02:42:31.242Z,0
2017-11-01T02:43:11.855Z,0
2017-11-01T02:43:52.448Z,0
2017-11-01T02:44:33.072Z,0
2017-11-01T02:45:13.648Z,0
2017-11-01T02:45:54.237Z,0
2017-11-01T02:46:34.839Z,0
2017-11-01T02:47:15.452Z,0
2017-11-01T02:47:56.062Z,0
2017-11-01T02:48:36.692Z,0
2017-11-01T02:49:17.297Z,0
2017-11-01T02:49:57.908Z,0
2017-11-01T02:50:38.505Z,0
2017-11-01T02:51:19.088Z,0
2017-11-01T02:51:59.695Z,0
2017-11-01T02:52:40.273Z,0
2017-11-01T02:53:20.846Z,0
2017-11-01T02:54:01.490Z,0
2017-11-01T02:54:42.030Z,0
2017-11-01T02:55:22.646Z,0
2017-11-01T02:56:03.226Z,0
2017-11-01T02:56:43.804Z,0
2017-11-01T02:57:24.395Z,0
2017-11-01T02:58:04.989Z,0
2017-11-01T02:58:45.564Z,0
2017-11-01T02:59:26.150Z,0
2017-11-01T03:00:06.732Z,0
2017-11-01T03:00:47.291Z,0
2017-11-01T03:01:27.865Z,0
2017-11-01T03:02:08.466Z,0
2017-11-01T03:02:49.065Z,0
2017-11-01T03:03:29.654Z,0
2017-11-01T03:04:10.251Z,0
2017-11-01T03:04:50.818Z,0
2017-11-01T03:05:31.400Z,0
2017-11-01T03:06:11.986Z,0
2017-11-01T03:06:52.574Z,0
2017-11-01T03:07:33.150Z,0
2017-11-01T03:08:13.741Z,0
2017-11-01T03:08:54.321Z,0
2017-11-01T03:09:34.927Z,0
2017-11-01T03:10:15.525Z,0
2017-11-01T03:10:56.101Z,0
2017-11-01T03:11:36.678Z,0
2017-11-01T03:12:17.279Z,0
2017-11-01T03:12:57.845Z,0
2017-11-01T03:13:38.470Z,0
2017-11-01T03:14:19.030Z,0
2017-11-01T03:14:59.596Z,0
2017-11-01T03:15:40.186Z,0
2017-11-01T03:16:20.758Z,0
2017-11-01T03:17:01.351Z,0
2017-11-01T03:17:41.920Z,0
2017-11-01T03:18:22.506Z,0
2017-11-01T03:19:03.106Z,0
2017-11-01T03:19:43.697Z,0
2017-11-01T03:20:24.270Z,0
2017-11-01T03:21:04.878Z,0
2017-11-01T03:21:45.470Z,0
2017-11-01T03:22:26.042Z,0
2017-11-01T03:23:06.635Z,0
2017-11-01T03:23:47.211Z,0
2017-11-01T03:24:27.776Z,0
2017-11-01T03:25:08.385Z,0
2017-11-01T03:25:48.984Z,0
2017-11-01T03:26:29.555Z,0
2017-11-01T03:27:10.136Z,0
2017-11-01T03:27:50.733Z,0
2017-11-01T03:28:31.331Z,0
2017-11-01T03:29:11.899Z,0
2017-11-01T03:29:52.482Z,0
2017-11-01T03:30:33.053Z,0
2017-11-01T03:31:13.645Z,0
2017-11-01T03:31:54.214Z,0
2017-11-01T03:32:34.826Z,0
2017-11-01T03:33:15.371Z,0
2017-11-01T03:33:55.970Z,0
2017-11-01T03:34:36.572Z,0
2017-11-01T03:35:17.161Z,0
2017-11-01T03:35:57.726Z,0
2017-11-01T03:36:38.330Z,0
2017-11-01T03:37:18.915Z,0
2017-11-01T03:37:59.566Z,0
2017-11-01T03:38:40.111Z,0
2017-11-01T03:39:20.711Z,0
2017-11-01T03:40:01.299Z,0
2017-11-01T03:40:41.875Z,0
2017-11-01T03:41:22.532Z,0
2017-11-01T03:42:03.176Z,0
2017-11-01T03:42:43.808Z,0
2017-11-01T03:43:24.387Z,0
2017-11-01T03:44:04.971Z,0
2017-11-01T03:44:45.550Z,0
2017-11-01T03:45:26.125Z,0
2017-11-01T03:46:06.695Z,0
2017-11-01T03:46:47.290Z,0
2017-11-01T03:47:27.873Z,0
2017-11-01T03:48:08.446Z,0
2017-11-01T03:48:49.071Z,0
2017-11-01T03:49:29.681Z,0
2017-11-01T03:50:10.285Z,0
2017-11-01T03:50:50.869Z,0
2017-11-01T03:51:31.478Z,0
2017-11-01T03:52:12.077Z,0
2017-11-01T03:52:52.682Z,0
2017-11-01T03:53:33.270Z,0
2017-11-01T03:54:13.837Z,0
2017-11-01T03:54:54.436Z,0
2017-11-01T03:55:34.986Z,0
2017-11-01T03:56:15.571Z,0
2017-11-01T03:56:56.138Z,0
2017-11-01T03:57:36.749Z,0
2017-11-01T03:58:17.329Z,0
2017-11-01T03:58:57.946Z,0
2017-11-01T03:59:38.621Z,0
2017-11-01T04:00:19.200Z,0
2017-11-01T04:00:59.832Z,0
2017-11-01T04:01:40.407Z,0
2017-11-01T04:02:20.990Z,0
2017-11-01T04:03:01.599Z,0
2017-11-01T04:03:42.168Z,0
2017-11-01T04:04:22.740Z,0
2017-11-01T04:05:03.388Z,0
2017-11-01T04:05:43.971Z,0
2017-11-01T04:06:24.556Z,0
2017-11-01T04:07:05.143Z,0
2017-11-01T04:07:45.739Z,0
2017-11-01T04:08:26.312Z,0
2017-11-01T04:09:06.912Z,0
2017-11-01T04:09:47.510Z,0
2017-11-01T04:10:28.080Z,0
2017-11-01T04:11:08.671Z,0
2017-11-01T04:11:49.259Z,0
2017-11-01T04:12:29.858Z,0
2017-11-01T04:13:10.443Z,0
2017-11-01T04:13:51.037Z,0
2017-11-01T04:14:31.608Z,0
2017-11-01T04:15:12.180Z,0
2017-11-01T04:15:52.803Z,0
2017-11-01T04:16:33.413Z,0
2017-11-01T04:17:14.023Z,0
2017-11-01T04:17:54.608Z,0
2017-11-01T04:18:35.185Z,0
2017-11-01T04:19:15.776Z,0
2017-11-01T04:19:56.359Z,0
2017-11-01T04:20:36.923Z,0
2017-11-01T04:21:17.504Z,0
2017-11-01T04:21:58.072Z,0
2017-11-01T04:22:38.658Z,0
2017-11-01T04:23:19.245Z,0
2017-11-01T04:23:59.845Z,0
2017-11-01T04:24:40.408Z,0
2017-11-01T04:25:21.019Z,0
2017-11-01T04:26:01.609Z,0
2017-11-01T04:26:42.194Z,0
2017-11-01T04:27:22.773Z,0
2017-11-01T04:28:03.412Z,0
2017-11-01T04:28:43.969Z,0
2017-11-01T04:29:24.604Z,0
2017-11-01T04:30:05.189Z,0
2017-11-01T04:30:45.808Z,0
2017-11-01T04:31:26.393Z,0
2017-11-01T04:32:06.971Z,0
2017-11-01T04:32:47.550Z,0
2017-11-01T04:33:28.133Z,0
2017-11-01T04:34:08.747Z,0
2017-11-01T04:34:49.370Z,0
2017-11-01T04:35:29.991Z,0
2017-11-01T04:36:10.554Z,0
2017-11-01T04:36:51.135Z,0
2017-11-01T04:37:31.729Z,0
2017-11-01T04:38:12.341Z,0
2017-11-01T04:38:52.907Z,0
2017-11-01T04:39:33.513Z,0
2017-11-01T04:40:14.100Z,0
2017-11-01T04:40:54.667Z,0
2017-11-01T04:41:35.283Z,0
2017-11-01T04:42:15.905Z,0
2017-11-01T04:42:56.493Z,0
2017-11-01T04:43:37.099Z,0
2017-11-01T04:44:17.691Z,0
2017-11-01T04:44:58.292Z,0
2017-11-01T04:45:38.885Z,0
2017-11-01T04:46:19.455Z,0
2017-11-01T04:47:00.077Z,0
2017-11-01T04:47:40.652Z,0
2017-11-01T04:48:21.235Z,0
2017-11-01T04:49:01.814Z,0
2017-11-01T04:49:42.402Z,0
2017-11-01T04:50:22.962Z,0
2017-11-01T04:51:03.527Z,0
2017-11-01T04:51:44.130Z,0
2017-11-01T04:52:24.710Z,0
2017-11-01T04:53:05.296Z,0
2017-11-01T04:53:45.994Z,0
2017-11-01T04:54:26.579Z,0
2017-11-01T04:55:07.147Z,0
2017-11-01T04:55:47.739Z,0
2017-11-01T04:56:28.330Z,0
2017-11-01T04:57:08.909Z,0
2017-11-01T04:57:49.529Z,0
2017-11-01T04:58:30.106Z,0
2017-11-01T04:59:10.707Z,0
2017-11-01T04:59:51.285Z,0
2017-11-01T05:00:32.428Z,0
2017-11-01T05:01:13.289Z,0
2017-11-01T05:01:53.984Z,0
2017-11-01T05:02:34.726Z,0
2017-11-01T05:03:15.312Z,0
2017-11-01T05:03:55.947Z,0
2017-11-01T05:04:36.693Z,0
2017-11-01T05:05:17.319Z,0
2017-11-01T05:05:57.920Z,0
2017-11-01T05:06:38.478Z,0
2017-11-01T05:07:19.062Z,0
2017-11-01T05:07:59.654Z,0
2017-11-01T05:08:40.224Z,0
2017-11-01T05:09:20.915Z,0
2017-11-01T05:10:01.469Z,0
2017-11-01T05:10:42.048Z,0
2017-11-01T05:11:22.642Z,0
2017-11-01T05:12:03.243Z,0
2017-11-01T05:12:43.814Z,0
2017-11-01T05:13:24.426Z,0
2017-11-01T05:14:05.049Z,0
2017-11-01T05:14:45.630Z,0
2017-11-01T05:15:26.233Z,0
2017-11-01T05:16:06.814Z,0
2017-11-01T05:16:47.397Z,0
2017-11-01T05:17:27.973Z,0
2017-11-01T05:18:08.556Z,0
2017-11-01T05:18:49.201Z,0
2017-11-01T05:19:29.732Z,0
2017-11-01T05:20:10.315Z,0
2017-11-01T05:20:50.912Z,0
2017-11-01T05:21:31.504Z,0
2017-11-01T05:22:12.102Z,0
2017-11-01T05:22:52.682Z,0
2017-11-01T05:23:33.367Z,0
2017-11-01T05:24:13.853Z,0
2017-11-01T05:24:54.524Z,0
2017-11-01T05:25:35.125Z,0
2017-11-01T05:26:15.748Z,0
2017-11-01T05:26:56.354Z,0
2017-11-01T05:27:36.950Z,0
2017-11-01T05:28:17.511Z,0
2017-11-01T05:28:58.100Z,0
2017-11-01T05:29:38.686Z,0
2017-11-01T05:30:19.244Z,0
2017-11-01T05:30:59.826Z,0
2017-11-01T05:31:40.439Z,0
2017-11-01T05:32:21.031Z,0
2017-11-01T05:33:01.647Z,0
2017-11-01T05:33:42.229Z,0
2017-11-01T05:34:22.784Z,0
2017-11-01T05:35:03.365Z,0
2017-11-01T05:35:43.996Z,0
2017-11-01T05:36:24.582Z,0
2017-11-01T05:37:05.176Z,0
2017-11-01T05:37:45.757Z,0
2017-11-01T05:38:26.344Z,0
2017-11-01T05:39:06.957Z,0
2017-11-01T05:39:47.509Z,0
2017-11-01T05:40:28.082Z,0
2017-11-01T05:41:08.648Z,0
2017-11-01T05:41:49.267Z,0
2017-11-01T05:42:29.843Z,0
2017-11-01T05:43:10.469Z,0
2017-11-01T05:43:51.085Z,0
2017-11-01T05:44:31.678Z,4
2017-11-01T05:45:12.261Z,4
2017-11-01T05:45:52.864Z,4
2017-11-01T05:46:33.443Z,4
2017-11-01T05:47:14.059Z,4
2017-11-01T05:47:54.645Z,4
2017-11-01T05:48:35.261Z,4
2017-11-01T05:49:15.859Z,8
2017-11-01T05:49:56.460Z,4
2017-11-01T05:50:37.048Z,8
2017-11-01T05:51:17.656Z,8
2017-11-01T05:51:58.258Z,8
2017-11-01T05:52:38.904Z,8
2017-11-01T05:53:19.540Z,12
2017-11-01T05:54:00.121Z,12
2017-11-01T05:54:40.732Z,8
2017-11-01T05:57:11.411Z,16
2017-11-01T05:57:53.121Z,16
2017-11-01T05:58:33.875Z,12
2017-11-01T05:59:14.446Z,16
2017-11-01T05:59:55.021Z,20
2017-11-01T06:00:35.584Z,20
2017-11-01T06:01:16.149Z,20
2017-11-01T06:01:56.755Z,20
2017-11-01T06:02:37.327Z,24
2017-11-01T06:03:17.912Z,24
2017-11-01T06:03:58.543Z,24
2017-11-01T06:04:39.211Z,28
2017-11-01T06:05:19.829Z,24
2017-11-01T06:06:00.450Z,24
2017-11-01T06:06:41.087Z,24
2017-11-01T06:07:21.802Z,28
2017-11-01T06:08:02.395Z,32
2017-11-01T06:08:42.983Z,28
2017-11-01T06:09:23.554Z,32
2017-11-01T06:10:04.124Z,28
2017-11-01T06:10:44.710Z,32
2017-11-01T06:11:25.328Z,32
2017-11-01T06:12:05.882Z,36
2017-11-01T06:12:46.508Z,32
2017-11-01T06:13:27.088Z,40
2017-11-01T06:14:07.711Z,40
2017-11-01T06:14:48.348Z,44
2017-11-01T06:15:28.965Z,48
2017-11-01T06:16:09.515Z,52
2017-11-01T06:16:50.129Z,48
2017-11-01T06:17:30.793Z,52
2017-11-01T06:18:11.428Z,52
2017-11-01T06:18:51.928Z,56
2017-11-01T06:19:32.533Z,60
2017-11-01T06:20:13.182Z,60
2017-11-01T06:20:53.835Z,56
2017-11-01T06:21:34.398Z,60
2017-11-01T06:22:14.976Z,64
2017-11-01T06:22:55.583Z,72
2017-11-01T06:23:36.175Z,80
2017-11-01T06:24:16.793Z,84
2017-11-01T06:24:57.396Z,84
2017-11-01T06:25:38.171Z,84
2017-11-01T06:26:19.007Z,84
2017-11-01T06:26:59.730Z,72
2017-11-01T06:27:40.382Z,80
2017-11-01T06:28:21.010Z,80
2017-11-01T06:29:01.616Z,88
2017-11-01T06:29:42.238Z,96
2017-11-01T06:30:22.861Z,108
2017-11-01T06:31:03.462Z,120
2017-11-01T06:31:44.129Z,132
2017-11-01T06:32:24.717Z,108
2017-11-01T06:33:05.341Z,108
2017-11-01T06:33:45.949Z,104
2017-11-01T06:34:26.556Z,96
2017-11-01T06:35:07.147Z,96
2017-11-01T06:35:47.772Z,92
2017-11-01T06:36:28.379Z,88
2017-11-01T06:37:08.961Z,88
2017-11-01T06:37:49.865Z,96
2017-11-01T06:38:30.652Z,100
2017-11-01T06:39:11.257Z,116
2017-11-01T06:39:52.105Z,136
2017-11-01T06:40:32.703Z,152
2017-11-01T06:41:13.381Z,148
2017-11-01T06:41:54.180Z,140
2017-11-01T06:42:34.813Z,148
2017-11-01T06:43:15.553Z,132
2017-11-01T06:43:56.255Z,136
2017-11-01T06:44:36.927Z,144
2017-11-01T06:45:17.574Z,156
2017-11-01T06:45:58.275Z,168
2017-11-01T06:46:38.999Z,180
2017-11-01T06:47:19.703Z,180
2017-11-01T06:48:00.408Z,184
2017-11-01T06:48:41.220Z,184
2017-11-01T06:49:22.043Z,184
2017-11-01T06:50:02.775Z,184
2017-11-01T06:50:43.350Z,204
2017-11-01T06:51:23.971Z,220
2017-11-01T06:52:04.614Z,236
2017-11-01T06:52:45.177Z,236
2017-11-01T06:53:25.778Z,252
2017-11-01T06:54:06.407Z,264
2017-11-01T06:54:47.004Z,260
2017-11-01T06:55:27.626Z,260
2017-11-01T06:56:08.262Z,240
2017-11-01T06:56:48.891Z,232
2017-11-01T06:57:29.625Z,244
2017-11-01T06:58:10.201Z,244
2017-11-01T06:58:50.843Z,260
2017-11-01T06:59:31.472Z,264
2017-11-01T07:00:12.096Z,256
2017-11-01T07:00:52.687Z,240
2017-11-01T07:01:33.318Z,232
2017-11-01T07:02:13.892Z,212
2017-11-01T07:02:54.491Z,204
2017-11-01T07:03:35.113Z,212
2017-11-01T07:04:15.711Z,204
2017-11-01T07:04:56.369Z,204
2017-11-01T07:05:36.989Z,184
2017-11-01T07:06:17.603Z,176
2017-11-01T07:06:58.237Z,156
2017-11-01T07:07:38.848Z,156
2017-11-01T07:08:19.453Z,172
2017-11-01T07:09:00.109Z,160
2017-11-01T07:09:40.741Z,140
2017-11-01T07:10:21.439Z,156
2017-11-01T07:11:01.998Z,152
2017-11-01T07:11:42.657Z,128
2017-11-01T07:12:23.242Z,116
2017-11-01T07:13:03.880Z,124
2017-11-01T07:13:44.548Z,112
2017-11-01T07:14:25.152Z,124
2017-11-01T07:15:05.773Z,120
2017-11-01T07:15:46.384Z,112
2017-11-01T07:16:26.984Z,116
2017-11-01T07:17:07.609Z,120
2017-11-01T07:17:48.198Z,136
2017-11-01T07:18:28.814Z,140
2017-11-01T07:19:09.436Z,144
2017-11-01T07:19:50.049Z,148
2017-11-01T07:20:30.695Z,168
2017-11-01T07:21:11.353Z,152
2017-11-01T07:21:51.979Z,128
2017-11-01T07:22:32.581Z,120
2017-11-01T07:23:13.173Z,128
2017-11-01T07:23:53.803Z,156
2017-11-01T07:24:35.025Z,172
2017-11-01T07:25:15.668Z,212
2017-11-01T07:25:56.310Z,204
2017-11-01T07:26:36.988Z,236
2017-11-01T07:27:17.635Z,228
2017-11-01T07:27:58.301Z,200
2017-11-01T07:28:38.897Z,208
2017-11-01T07:29:19.563Z,224
2017-11-01T07:30:00.163Z,288
2017-11-01T07:30:40.783Z,292
2017-11-01T07:31:21.368Z,332
2017-11-01T07:32:01.995Z,356
2017-11-01T07:32:42.577Z,392
2017-11-01T07:33:23.198Z,360
2017-11-01T07:34:03.862Z,360
2017-11-01T07:34:44.432Z,372
2017-11-01T07:35:25.358Z,352
2017-11-01T07:36:06.258Z,368
2017-11-01T07:36:46.872Z,396
2017-11-01T07:37:27.566Z,436
2017-11-01T07:38:08.118Z,392
2017-11-01T07:38:48.758Z,372
2017-11-01T07:39:29.314Z,444
2017-11-01T07:40:09.934Z,484
2017-11-01T07:40:50.569Z,536
2017-11-01T07:41:31.157Z,464
2017-11-01T07:42:11.764Z,400
2017-11-01T07:42:52.369Z,472
2017-11-01T07:43:33.011Z,520
2017-11-01T07:44:13.572Z,648
2017-11-01T07:44:54.214Z,668
2017-11-01T07:45:34.878Z,544
2017-11-01T07:46:15.528Z,516
2017-11-01T07:46:56.179Z,432
2017-11-01T07:47:36.737Z,476
2017-11-01T07:48:17.360Z,528
2017-11-01T07:48:57.989Z,592
2017-11-01T07:49:38.647Z,720
2017-11-01T07:50:19.330Z,772
2017-11-01T07:50:59.900Z,944
2017-11-01T07:51:40.593Z,868
2017-11-01T07:52:21.520Z,836
2017-11-01T07:53:02.803Z,800
2017-11-01T07:53:44.030Z,760
2017-11-01T07:54:25.038Z,968
2017-11-01T07:55:05.882Z,956
2017-11-01T07:55:46.781Z,1076
2017-11-01T07:56:27.691Z,1048
2017-11-01T07:57:08.471Z,792
2017-11-01T07:57:49.074Z,700
2017-11-01T07:58:29.717Z,732
2017-11-01T07:59:10.537Z,696
2017-11-01T07:59:51.255Z,804
2017-11-01T08:00:31.884Z,1036
2017-11-01T08:01:12.485Z,904
2017-11-01T08:01:53.143Z,888
2017-11-01T08:02:33.717Z,804
2017-11-01T08:03:14.579Z,616
2017-11-01T08:03:55.216Z,608
2017-11-01T08:04:35.783Z,740
2017-11-01T08:05:16.405Z,836
2017-11-01T08:05:57.060Z,1004
2017-11-01T08:06:37.720Z,908
2017-11-01T08:07:18.380Z,780
2017-11-01T08:07:58.980Z,672
2017-11-01T08:08:39.622Z,760
2017-11-01T08:09:20.198Z,896
2017-11-01T08:10:00.825Z,856
2017-11-01T08:10:41.430Z,1060
2017-11-01T08:11:22.086Z,1084
2017-11-01T08:12:02.720Z,812
2017-11-01T08:12:43.377Z,752
2017-11-01T08:13:23.996Z,932
2017-11-01T08:14:04.611Z,920
2017-11-01T08:14:45.232Z,952
2017-11-01T08:15:25.853Z,1032
2017-11-01T08:16:06.461Z,1044
2017-11-01T08:16:47.120Z,1080
2017-11-01T08:17:28.093Z,1092
2017-11-01T08:18:08.705Z,1104
2017-11-01T08:18:49.361Z,1172
2017-11-01T08:19:29.980Z,1340
2017-11-01T08:20:10.648Z,1272
2017-11-01T08:20:51.248Z,1028
2017-11-01T08:21:31.897Z,920
2017-11-01T08:22:12.516Z,924
2017-11-01T08:22:53.089Z,904
2017-11-01T08:23:33.742Z,984
2017-11-01T08:24:14.379Z,1064
2017-11-01T08:24:55.056Z,1156
2017-11-01T08:25:35.677Z,1252
2017-11-01T08:26:16.372Z,1004
2017-11-01T08:26:57.008Z,956
2017-11-01T08:27:37.666Z,848
2017-11-01T08:28:18.466Z,836
2017-11-01T08:28:59.102Z,952
2017-11-01T08:29:39.710Z,956
2017-11-01T08:30:20.348Z,1228
2017-11-01T08:31:01.007Z,1276
2017-11-01T08:31:41.611Z,1144
2017-11-01T08:32:22.272Z,952
2017-11-01T08:33:03.000Z,804
2017-11-01T08:33:43.616Z,748
2017-11-01T08:34:24.220Z,748
2017-11-01T08:35:04.856Z,768
2017-11-01T08:35:45.492Z,804
2017-11-01T08:36:26.089Z,800
2017-11-01T08:37:06.709Z,804
2017-11-01T08:37:47.428Z,916
2017-11-01T08:38:28.055Z,1092
2017-11-01T08:39:08.744Z,1188
2017-11-01T08:39:49.312Z,1080
2017-11-01T08:40:29.985Z,836
2017-11-01T08:41:10.537Z,684
2017-11-01T08:41:51.180Z,572
2017-11-01T08:42:31.802Z,564
2017-11-01T08:43:12.413Z,540
2017-11-01T08:43:53.031Z,608
2017-11-01T08:44:33.653Z,620
2017-11-01T08:45:14.255Z,672
2017-11-01T08:45:54.906Z,868
2017-11-01T08:46:35.507Z,728
2017-11-01T08:47:16.120Z,636
2017-11-01T08:47:57.144Z,576
2017-11-01T08:48:37.743Z,580
2017-11-01T08:49:18.323Z,632
2017-11-01T08:49:58.927Z,684
2017-11-01T08:50:39.562Z,744
2017-11-01T08:51:20.197Z,740
2017-11-01T08:52:00.787Z,564
2017-11-01T08:52:41.405Z,496
2017-11-01T08:53:22.025Z,540
2017-11-01T08:54:02.650Z,708
2017-11-01T08:54:43.430Z,868
2017-11-01T08:55:24.611Z,1068
2017-11-01T08:56:05.232Z,916
2017-11-01T08:56:45.839Z,912
2017-11-01T08:57:26.452Z,664
2017-11-01T08:58:07.077Z,648
2017-11-01T08:58:47.714Z,712
2017-11-01T08:59:28.270Z,804
2017-11-01T09:00:08.871Z,1024
2017-11-01T09:00:49.483Z,1132
2017-11-01T09:01:30.047Z,1216
2017-11-01T09:02:10.666Z,1052
2017-11-01T09:02:51.353Z,1020
2017-11-01T09:03:31.926Z,1004
2017-11-01T09:04:12.549Z,892
2017-11-01T09:04:53.111Z,788
2017-11-01T09:05:33.710Z,812
2017-11-01T09:06:14.270Z,844
2017-11-01T09:06:54.857Z,1024
2017-11-01T09:07:35.446Z,1256
2017-11-01T09:08:16.022Z,1164
2017-11-01T09:08:56.617Z,980
2017-11-01T09:09:37.226Z,808
2017-11-01T09:10:17.834Z,832
2017-11-01T09:10:58.434Z,940
2017-11-01T09:11:39.094Z,1032
2017-11-01T09:12:19.745Z,1264
2017-11-01T09:13:00.329Z,1252
2017-11-01T09:13:40.964Z,1076
2017-11-01T09:14:21.522Z,1192
2017-11-01T09:15:02.089Z,1140
2017-11-01T09:15:42.692Z,880
2017-11-01T09:16:23.269Z,844
2017-11-01T09:17:03.843Z,748
2017-11-01T09:17:44.495Z,628
2017-11-01T09:18:25.103Z,732
2017-11-01T09:19:05.662Z,820
2017-11-01T09:19:46.239Z,804
2017-11-01T09:20:26.855Z,928
2017-11-01T09:21:07.469Z,948
2017-11-01T09:21:48.054Z,872
2017-11-01T09:22:28.687Z,776
2017-11-01T09:23:09.265Z,696
2017-11-01T09:23:49.854Z,656
2017-11-01T09:24:30.541Z,680
2017-11-01T09:25:11.110Z,728
2017-11-01T09:25:51.815Z,760
2017-11-01T09:26:32.438Z,708
2017-11-01T09:27:13.012Z,764
2017-11-01T09:27:53.588Z,868
2017-11-01T09:28:34.159Z,852
2017-11-01T09:29:14.758Z,816
2017-11-01T09:29:55.436Z,832
2017-11-01T09:30:36.041Z,828
2017-11-01T09:31:16.609Z,988
2017-11-01T09:31:57.177Z,896
2017-11-01T09:32:37.749Z,1016
2017-11-01T09:33:18.328Z,1092
2017-11-01T09:33:58.892Z,1008
2017-11-01T09:34:39.479Z,968
2017-11-01T09:35:20.151Z,936
2017-11-01T09:36:00.732Z,848
2017-11-01T09:36:41.300Z,776
2017-11-01T09:37:21.885Z,852
2017-11-01T09:38:02.472Z,1076
2017-11-01T09:38:43.042Z,1292
2017-11-01T09:39:23.639Z,1584
2017-11-01T09:40:04.277Z,1696
2017-11-01T09:40:44.910Z,1952
2017-11-01T09:41:25.502Z,2484
2017-11-01T09:42:06.116Z,2104
2017-11-01T09:42:46.756Z,1728
2017-11-01T09:43:27.693Z,1556
2017-11-01T09:44:08.458Z,1568
2017-11-01T09:44:49.210Z,1332
2017-11-01T09:45:29.871Z,1284
2017-11-01T09:46:10.602Z,1228
2017-11-01T09:46:52.052Z,1308
2017-11-01T09:47:32.673Z,1028
2017-11-01T09:48:13.266Z,1136
2017-11-01T09:48:53.863Z,1076
2017-11-01T09:49:34.534Z,1148
2017-11-01T09:50:15.133Z,1188
2017-11-01T09:50:55.775Z,1324
2017-11-01T09:51:36.421Z,1300
2017-11-01T09:52:17.026Z,1064
2017-11-01T09:52:57.652Z,1024
2017-11-01T09:53:38.241Z,1084
2017-11-01T09:54:18.943Z,868
2017-11-01T09:54:59.547Z,852
2017-11-01T09:55:40.170Z,864
2017-11-01T09:56:20.712Z,800
2017-11-01T09:57:01.325Z,740
2017-11-01T09:57:41.960Z,716
2017-11-01T09:58:22.551Z,676
2017-11-01T09:59:03.142Z,852
2017-11-01T09:59:43.720Z,816
2017-11-01T10:00:24.316Z,844
2017-11-01T10:01:04.920Z,804
2017-11-01T10:01:45.526Z,760
2017-11-01T10:02:26.186Z,844
2017-11-01T10:03:06.746Z,852
2017-11-01T10:03:47.382Z,852
2017-11-01T10:04:28.036Z,784
2017-11-01T10:05:08.652Z,744
2017-11-01T10:05:49.284Z,744
2017-11-01T10:06:29.945Z,720